sensor_id;sensor_type;location;lat;lon;timestamp;temperature;humidity
75296;DHT22;64623;44.738;37.804;2023-11-21T00:00:59;-7.19;118.99
75296;DHT22;64623;44.738;37.804;2023-11-21T00:02:06;-7.24;118.99
75296;DHT22;64623;44.738;37.804;2023-11-21T00:03:09;-7.22;118.99
75296;DHT22;64623;44.738;37.804;2023-11-21T00:04:14;-7.20;118.99
75296;DHT22;64623;44.738;37.804;2023-11-21T00:05:18;-7.19;118.99
75296;DHT22;64623;44.738;37.804;2023-11-21T00:06:21;-7.23;118.99
75296;DHT22;64623;44.738;37.804;2023-11-21T00:07:24;-7.23;118.99
75296;DHT22;64623;44.738;37.804;2023-11-21T00:08:28;-7.15;118.99
75296;DHT22;64623;44.738;37.804;2023-11-21T00:09:31;-7.16;118.99
75296;DHT22;64623;44.738;37.804;2023-11-21T00:10:35;-7.16;118.99
75296;DHT22;64623;44.738;37.804;2023-11-21T00:11:38;-7.13;118.99
75296;DHT22;64623;44.738;37.804;2023-11-21T00:12:41;-7.17;118.99
75296;DHT22;64623;44.738;37.804;2023-11-21T00:13:44;-7.17;118.99
75296;DHT22;64623;44.738;37.804;2023-11-21T00:14:48;-7.18;118.99
75296;DHT22;64623;44.738;37.804;2023-11-21T00:15:51;-7.18;118.99
75296;DHT22;64623;44.738;37.804;2023-11-21T00:16:54;-7.23;118.99
75296;DHT22;64623;44.738;37.804;2023-11-21T00:17:57;-7.27;118.99
75296;DHT22;64623;44.738;37.804;2023-11-21T00:19:00;-7.26;118.99
75296;DHT22;64623;44.738;37.804;2023-11-21T00:20:05;-7.31;118.99
75296;DHT22;64623;44.738;37.804;2023-11-21T00:21:09;-7.36;118.99
75296;DHT22;64623;44.738;37.804;2023-11-21T00:22:13;-7.37;118.99
75296;DHT22;64623;44.738;37.804;2023-11-21T00:23:16;-7.33;118.99
75296;DHT22;64623;44.738;37.804;2023-11-21T00:24:19;-7.35;118.99
75296;DHT22;64623;44.738;37.804;2023-11-21T00:25:22;-7.31;118.99
75296;DHT22;64623;44.738;37.804;2023-11-21T00:26:25;-7.32;118.99
75296;DHT22;64623;44.738;37.804;2023-11-21T00:27:36;-7.27;118.99
75296;DHT22;64623;44.738;37.804;2023-11-21T00:28:39;-7.26;118.99
75296;DHT22;64623;44.738;37.804;2023-11-21T00:29:43;-7.27;118.99
75296;DHT22;64623;44.738;37.804;2023-11-21T00:30:47;-7.31;118.99
75296;DHT22;64623;44.738;37.804;2023-11-21T00:31:50;-7.30;118.99
75296;DHT22;64623;44.738;37.804;2023-11-21T00:32:53;-7.32;118.99
75296;DHT22;64623;44.738;37.804;2023-11-21T00:33:56;-7.30;118.99
75296;DHT22;64623;44.738;37.804;2023-11-21T00:34:59;-7.32;118.99
75296;DHT22;64623;44.738;37.804;2023-11-21T00:36:05;-7.30;118.99
75296;DHT22;64623;44.738;37.804;2023-11-21T00:37:12;-7.29;118.99
75296;DHT22;64623;44.738;37.804;2023-11-21T00:38:15;-7.24;118.99
75296;DHT22;64623;44.738;37.804;2023-11-21T00:39:18;-7.27;118.99
75296;DHT22;64623;44.738;37.804;2023-11-21T00:40:21;-7.27;118.99
75296;DHT22;64623;44.738;37.804;2023-11-21T00:41:25;-7.30;118.99
75296;DHT22;64623;44.738;37.804;2023-11-21T00:42:31;-7.29;118.99
75296;DHT22;64623;44.738;37.804;2023-11-21T00:43:36;-7.31;118.99
75296;DHT22;64623;44.738;37.804;2023-11-21T00:44:39;-7.32;118.99
75296;DHT22;64623;44.738;37.804;2023-11-21T00:45:43;-7.35;118.99
75296;DHT22;64623;44.738;37.804;2023-11-21T00:46:46;-7.35;118.99
75296;DHT22;64623;44.738;37.804;2023-11-21T00:47:49;-7.34;118.99
75296;DHT22;64623;44.738;37.804;2023-11-21T00:48:52;-7.31;118.99
75296;DHT22;64623;44.738;37.804;2023-11-21T00:49:57;-7.25;118.99
75296;DHT22;64623;44.738;37.804;2023-11-21T00:51:00;-7.26;118.99
75296;DHT22;64623;44.738;37.804;2023-11-21T00:52:03;-7.27;118.99
75296;DHT22;64623;44.738;37.804;2023-11-21T00:53:06;-7.29;118.99
75296;DHT22;64623;44.738;37.804;2023-11-21T00:54:13;-7.27;118.99
75296;DHT22;64623;44.738;37.804;2023-11-21T00:55:16;-7.26;118.99
75296;DHT22;64623;44.738;37.804;2023-11-21T00:56:20;-7.25;118.99
75296;DHT22;64623;44.738;37.804;2023-11-21T00:57:23;-7.24;118.99
75296;DHT22;64623;44.738;37.804;2023-11-21T00:58:26;-7.20;118.99
75296;DHT22;64623;44.738;37.804;2023-11-21T00:59:29;-7.17;118.99
75296;DHT22;64623;44.738;37.804;2023-11-21T01:00:33;-7.09;118.99
75296;DHT22;64623;44.738;37.804;2023-11-21T01:01:36;-7.08;118.99
75296;DHT22;64623;44.738;37.804;2023-11-21T01:02:41;-7.08;118.99
75296;DHT22;64623;44.738;37.804;2023-11-21T01:03:46;-7.08;118.99
75296;DHT22;64623;44.738;37.804;2023-11-21T01:04:49;-7.11;118.99
75296;DHT22;64623;44.738;37.804;2023-11-21T01:05:52;-7.07;118.99
75296;DHT22;64623;44.738;37.804;2023-11-21T01:06:56;-7.09;118.99
75296;DHT22;64623;44.738;37.804;2023-11-21T01:07:59;-7.16;118.99
75296;DHT22;64623;44.738;37.804;2023-11-21T01:09:02;-7.17;118.99
75296;DHT22;64623;44.738;37.804;2023-11-21T01:10:10;-7.15;118.99
75296;DHT22;64623;44.738;37.804;2023-11-21T01:11:13;-7.12;118.99
75296;DHT22;64623;44.738;37.804;2023-11-21T01:12:18;-7.11;118.99
75296;DHT22;64623;44.738;37.804;2023-11-21T01:13:21;-7.17;118.99
75296;DHT22;64623;44.738;37.804;2023-11-21T01:14:24;-7.19;118.99
75296;DHT22;64623;44.738;37.804;2023-11-21T01:15:29;-7.23;118.99
75296;DHT22;64623;44.738;37.804;2023-11-21T01:16:32;-7.22;118.99
75296;DHT22;64623;44.738;37.804;2023-11-21T01:17:35;-7.20;118.99
75296;DHT22;64623;44.738;37.804;2023-11-21T01:18:38;-7.17;118.99
75296;DHT22;64623;44.738;37.804;2023-11-21T01:19:41;-7.18;118.99
75296;DHT22;64623;44.738;37.804;2023-11-21T01:20:47;-7.21;118.99
75296;DHT22;64623;44.738;37.804;2023-11-21T01:21:50;-7.20;118.99
75296;DHT22;64623;44.738;37.804;2023-11-21T01:22:54;-7.21;118.99
75296;DHT22;64623;44.738;37.804;2023-11-21T01:23:58;-7.21;118.99
75296;DHT22;64623;44.738;37.804;2023-11-21T01:25:01;-7.20;118.99
75296;DHT22;64623;44.738;37.804;2023-11-21T01:26:06;-7.20;118.99
75296;DHT22;64623;44.738;37.804;2023-11-21T01:27:12;-7.17;118.99
75296;DHT22;64623;44.738;37.804;2023-11-21T01:28:15;-7.13;118.99
75296;DHT22;64623;44.738;37.804;2023-11-21T01:29:18;-7.13;118.99
75296;DHT22;64623;44.738;37.804;2023-11-21T01:30:21;-7.12;118.99
75296;DHT22;64623;44.738;37.804;2023-11-21T01:31:25;-7.09;118.99
75296;DHT22;64623;44.738;37.804;2023-11-21T01:32:31;-7.07;118.99
75296;DHT22;64623;44.738;37.804;2023-11-21T01:33:35;-7.07;118.99
75296;DHT22;64623;44.738;37.804;2023-11-21T01:34:38;-7.08;118.99
75296;DHT22;64623;44.738;37.804;2023-11-21T01:35:41;-7.09;118.99
75296;DHT22;64623;44.738;37.804;2023-11-21T01:36:46;-7.07;118.99
75296;DHT22;64623;44.738;37.804;2023-11-21T01:37:49;-7.06;118.99
75296;DHT22;64623;44.738;37.804;2023-11-21T01:38:53;-7.09;118.99
75296;DHT22;64623;44.738;37.804;2023-11-21T01:39:57;-7.07;118.99
75296;DHT22;64623;44.738;37.804;2023-11-21T01:41:01;-7.06;118.99
75296;DHT22;64623;44.738;37.804;2023-11-21T01:42:06;-7.04;118.99
75296;DHT22;64623;44.738;37.804;2023-11-21T01:43:10;-7.03;118.99
75296;DHT22;64623;44.738;37.804;2023-11-21T01:44:13;-7.04;118.99
75296;DHT22;64623;44.738;37.804;2023-11-21T01:45:16;-7.10;118.99
75296;DHT22;64623;44.738;37.804;2023-11-21T01:46:20;-7.09;118.99
75296;DHT22;64623;44.738;37.804;2023-11-21T01:47:23;-7.05;118.99
75296;DHT22;64623;44.738;37.804;2023-11-21T01:48:27;-7.03;118.99
75296;DHT22;64623;44.738;37.804;2023-11-21T01:49:34;-7.00;118.99
75296;DHT22;64623;44.738;37.804;2023-11-21T01:50:37;-6.97;118.99
75296;DHT22;64623;44.738;37.804;2023-11-21T01:51:42;-6.96;118.99
75296;DHT22;64623;44.738;37.804;2023-11-21T01:52:46;-6.96;118.99
75296;DHT22;64623;44.738;37.804;2023-11-21T01:53:51;-6.96;118.99
75296;DHT22;64623;44.738;37.804;2023-11-21T01:54:55;-6.93;118.99
75296;DHT22;64623;44.738;37.804;2023-11-21T01:55:58;-6.93;118.99
75296;DHT22;64623;44.738;37.804;2023-11-21T01:57:04;-6.93;118.99
75296;DHT22;64623;44.738;37.804;2023-11-21T01:58:09;-6.92;118.99
75296;DHT22;64623;44.738;37.804;2023-11-21T01:59:21;-6.90;118.99
75296;DHT22;64623;44.738;37.804;2023-11-21T02:00:25;-6.94;118.99
75296;DHT22;64623;44.738;37.804;2023-11-21T02:01:31;-6.95;118.99
75296;DHT22;64623;44.738;37.804;2023-11-21T02:02:34;-6.97;118.99
75296;DHT22;64623;44.738;37.804;2023-11-21T02:03:38;-6.94;118.99
75296;DHT22;64623;44.738;37.804;2023-11-21T02:04:43;-6.95;118.99
75296;DHT22;64623;44.738;37.804;2023-11-21T02:05:46;-6.93;118.99
75296;DHT22;64623;44.738;37.804;2023-11-21T02:06:49;-6.95;118.99
75296;DHT22;64623;44.738;37.804;2023-11-21T02:07:55;-7.02;118.99
75296;DHT22;64623;44.738;37.804;2023-11-21T02:08:59;-7.02;118.99
75296;DHT22;64623;44.738;37.804;2023-11-21T02:10:02;-7.01;118.99
75296;DHT22;64623;44.738;37.804;2023-11-21T02:11:07;-7.00;118.99
75296;DHT22;64623;44.738;37.804;2023-11-21T02:12:10;-7.00;118.99
75296;DHT22;64623;44.738;37.804;2023-11-21T02:13:14;-7.01;118.99
75296;DHT22;64623;44.738;37.804;2023-11-21T02:14:19;-7.04;118.99
75296;DHT22;64623;44.738;37.804;2023-11-21T02:15:24;-7.01;118.99
75296;DHT22;64623;44.738;37.804;2023-11-21T02:16:32;-7.00;118.99
75296;DHT22;64623;44.738;37.804;2023-11-21T02:17:36;-7.00;118.99
75296;DHT22;64623;44.738;37.804;2023-11-21T02:18:39;-6.97;118.99
75296;DHT22;64623;44.738;37.804;2023-11-21T02:19:42;-6.96;118.99
75296;DHT22;64623;44.738;37.804;2023-11-21T02:21:06;-6.96;118.99
75296;DHT22;64623;44.738;37.804;2023-11-21T02:22:09;-6.97;118.99
75296;DHT22;64623;44.738;37.804;2023-11-21T02:23:13;-7.00;118.99
75296;DHT22;64623;44.738;37.804;2023-11-21T02:24:23;-6.96;118.99
75296;DHT22;64623;44.738;37.804;2023-11-21T02:25:33;-6.97;118.99
75296;DHT22;64623;44.738;37.804;2023-11-21T02:26:36;-6.98;118.99
75296;DHT22;64623;44.738;37.804;2023-11-21T02:27:39;-6.98;118.99
75296;DHT22;64623;44.738;37.804;2023-11-21T02:28:42;-7.00;118.99
75296;DHT22;64623;44.738;37.804;2023-11-21T02:29:45;-7.05;118.99
75296;DHT22;64623;44.738;37.804;2023-11-21T02:30:48;-6.98;118.99
75296;DHT22;64623;44.738;37.804;2023-11-21T02:31:58;-6.95;118.99
75296;DHT22;64623;44.738;37.804;2023-11-21T02:33:02;-7.01;118.99
75296;DHT22;64623;44.738;37.804;2023-11-21T02:34:06;-7.00;118.99
75296;DHT22;64623;44.738;37.804;2023-11-21T02:35:09;-7.02;118.99
75296;DHT22;64623;44.738;37.804;2023-11-21T02:36:12;-7.02;118.99
75296;DHT22;64623;44.738;37.804;2023-11-21T02:37:15;-7.01;118.99
75296;DHT22;64623;44.738;37.804;2023-11-21T02:38:18;-7.03;118.99
75296;DHT22;64623;44.738;37.804;2023-11-21T02:39:21;-7.02;118.99
75296;DHT22;64623;44.738;37.804;2023-11-21T02:40:27;-7.04;118.99
75296;DHT22;64623;44.738;37.804;2023-11-21T02:41:30;-7.03;118.99
75296;DHT22;64623;44.738;37.804;2023-11-21T02:42:33;-7.03;118.99
75296;DHT22;64623;44.738;37.804;2023-11-21T02:43:36;-7.02;118.99
75296;DHT22;64623;44.738;37.804;2023-11-21T02:44:41;-7.01;118.99
75296;DHT22;64623;44.738;37.804;2023-11-21T02:45:44;-7.07;118.99
75296;DHT22;64623;44.738;37.804;2023-11-21T02:46:47;-7.08;118.99
75296;DHT22;64623;44.738;37.804;2023-11-21T02:47:50;-7.07;118.99
75296;DHT22;64623;44.738;37.804;2023-11-21T02:48:56;-7.08;118.99
75296;DHT22;64623;44.738;37.804;2023-11-21T02:50:00;-7.07;118.99
75296;DHT22;64623;44.738;37.804;2023-11-21T02:51:04;-7.06;118.99
75296;DHT22;64623;44.738;37.804;2023-11-21T02:52:07;-7.07;118.99
75296;DHT22;64623;44.738;37.804;2023-11-21T02:53:10;-7.05;118.99
75296;DHT22;64623;44.738;37.804;2023-11-21T02:54:13;-7.06;118.99
75296;DHT22;64623;44.738;37.804;2023-11-21T02:55:17;-7.06;118.99
75296;DHT22;64623;44.738;37.804;2023-11-21T02:56:21;-7.00;118.99
75296;DHT22;64623;44.738;37.804;2023-11-21T02:57:24;-7.01;118.99
75296;DHT22;64623;44.738;37.804;2023-11-21T02:58:27;-7.02;118.99
75296;DHT22;64623;44.738;37.804;2023-11-21T02:59:30;-7.03;118.99
75296;DHT22;64623;44.738;37.804;2023-11-21T03:00:33;-7.02;118.99
75296;DHT22;64623;44.738;37.804;2023-11-21T03:01:36;-7.01;118.99
75296;DHT22;64623;44.738;37.804;2023-11-21T03:02:39;-7.03;118.99
75296;DHT22;64623;44.738;37.804;2023-11-21T03:03:42;-7.07;118.99
75296;DHT22;64623;44.738;37.804;2023-11-21T03:04:45;-7.03;118.99
75296;DHT22;64623;44.738;37.804;2023-11-21T03:05:50;-7.04;118.99
75296;DHT22;64623;44.738;37.804;2023-11-21T03:06:53;-7.05;118.99
75296;DHT22;64623;44.738;37.804;2023-11-21T03:07:56;-7.07;118.99
75296;DHT22;64623;44.738;37.804;2023-11-21T03:09:01;-7.05;118.99
75296;DHT22;64623;44.738;37.804;2023-11-21T03:10:04;-7.05;118.99
75296;DHT22;64623;44.738;37.804;2023-11-21T03:11:07;-7.02;118.99
75296;DHT22;64623;44.738;37.804;2023-11-21T03:12:10;-6.97;118.99
75296;DHT22;64623;44.738;37.804;2023-11-21T03:13:14;-6.98;118.99
75296;DHT22;64623;44.738;37.804;2023-11-21T03:14:18;-6.98;118.99
75296;DHT22;64623;44.738;37.804;2023-11-21T03:15:21;-6.93;118.99
75296;DHT22;64623;44.738;37.804;2023-11-21T03:16:24;-6.96;118.99
75296;DHT22;64623;44.738;37.804;2023-11-21T03:17:27;-6.95;118.99
75296;DHT22;64623;44.738;37.804;2023-11-21T03:18:30;-6.97;118.99
75296;DHT22;64623;44.738;37.804;2023-11-21T03:19:33;-6.97;118.99
75296;DHT22;64623;44.738;37.804;2023-11-21T03:20:36;-7.00;118.99
75296;DHT22;64623;44.738;37.804;2023-11-21T03:21:39;-7.01;118.99
75296;DHT22;64623;44.738;37.804;2023-11-21T03:22:42;-6.98;118.99
75296;DHT22;64623;44.738;37.804;2023-11-21T03:23:45;-7.00;118.99
75296;DHT22;64623;44.738;37.804;2023-11-21T03:24:47;-6.98;118.99
75296;DHT22;64623;44.738;37.804;2023-11-21T03:25:52;-7.00;118.99
75296;DHT22;64623;44.738;37.804;2023-11-21T03:27:04;-6.97;118.99
75296;DHT22;64623;44.738;37.804;2023-11-21T03:28:07;-6.93;118.99
75296;DHT22;64623;44.738;37.804;2023-11-21T03:29:11;-6.94;118.99
75296;DHT22;64623;44.738;37.804;2023-11-21T03:30:14;-6.92;118.99
75296;DHT22;64623;44.738;37.804;2023-11-21T03:31:17;-6.92;118.99
75296;DHT22;64623;44.738;37.804;2023-11-21T03:32:21;-6.92;118.99
75296;DHT22;64623;44.738;37.804;2023-11-21T03:33:24;-6.90;118.99
75296;DHT22;64623;44.738;37.804;2023-11-21T03:34:28;-6.91;118.99
75296;DHT22;64623;44.738;37.804;2023-11-21T03:35:31;-6.89;118.99
75296;DHT22;64623;44.738;37.804;2023-11-21T03:36:34;-6.89;118.99
75296;DHT22;64623;44.738;37.804;2023-11-21T03:37:37;-6.91;118.99
75296;DHT22;64623;44.738;37.804;2023-11-21T03:38:44;-6.93;118.99
75296;DHT22;64623;44.738;37.804;2023-11-21T03:39:47;-6.92;118.99
75296;DHT22;64623;44.738;37.804;2023-11-21T03:40:50;-6.92;118.99
75296;DHT22;64623;44.738;37.804;2023-11-21T03:41:53;-6.88;118.99
75296;DHT22;64623;44.738;37.804;2023-11-21T03:42:57;-6.90;118.99
75296;DHT22;64623;44.738;37.804;2023-11-21T03:44:00;-6.91;118.99
75296;DHT22;64623;44.738;37.804;2023-11-21T03:45:04;-6.91;118.99
75296;DHT22;64623;44.738;37.804;2023-11-21T03:46:07;-6.92;118.99
75296;DHT22;64623;44.738;37.804;2023-11-21T03:47:11;-6.95;118.99
75296;DHT22;64623;44.738;37.804;2023-11-21T03:48:14;-6.96;118.99
75296;DHT22;64623;44.738;37.804;2023-11-21T03:49:17;-7.02;118.99
75296;DHT22;64623;44.738;37.804;2023-11-21T03:50:20;-6.97;118.99
75296;DHT22;64623;44.738;37.804;2023-11-21T03:51:25;-6.93;118.99
75296;DHT22;64623;44.738;37.804;2023-11-21T03:52:28;-6.94;118.99
75296;DHT22;64623;44.738;37.804;2023-11-21T03:53:31;-6.95;118.99
75296;DHT22;64623;44.738;37.804;2023-11-21T03:54:34;-6.97;118.99
75296;DHT22;64623;44.738;37.804;2023-11-21T03:55:38;-7.00;118.99
75296;DHT22;64623;44.738;37.804;2023-11-21T03:56:41;-7.01;118.99
75296;DHT22;64623;44.738;37.804;2023-11-21T03:57:44;-6.98;118.99
75296;DHT22;64623;44.738;37.804;2023-11-21T03:58:47;-6.94;118.99
75296;DHT22;64623;44.738;37.804;2023-11-21T03:59:50;-6.94;118.99
75296;DHT22;64623;44.738;37.804;2023-11-21T04:00:53;-6.95;118.99
75296;DHT22;64623;44.738;37.804;2023-11-21T04:01:56;-6.95;118.99
75296;DHT22;64623;44.738;37.804;2023-11-21T04:02:59;-6.93;118.99
75296;DHT22;64623;44.738;37.804;2023-11-21T04:04:02;-6.93;118.99
75296;DHT22;64623;44.738;37.804;2023-11-21T04:05:05;-6.96;118.99
75296;DHT22;64623;44.738;37.804;2023-11-21T04:06:09;-6.96;118.99
75296;DHT22;64623;44.738;37.804;2023-11-21T04:07:12;-6.97;118.99
75296;DHT22;64623;44.738;37.804;2023-11-21T04:08:16;-6.95;118.99
75296;DHT22;64623;44.738;37.804;2023-11-21T04:09:18;-6.93;118.99
75296;DHT22;64623;44.738;37.804;2023-11-21T04:10:21;-6.94;118.99
75296;DHT22;64623;44.738;37.804;2023-11-21T04:11:24;-6.94;118.99
75296;DHT22;64623;44.738;37.804;2023-11-21T04:12:27;-6.91;118.99
75296;DHT22;64623;44.738;37.804;2023-11-21T04:13:30;-6.90;118.99
75296;DHT22;64623;44.738;37.804;2023-11-21T04:14:33;-6.83;118.99
75296;DHT22;64623;44.738;37.804;2023-11-21T04:15:36;-6.86;118.99
75296;DHT22;64623;44.738;37.804;2023-11-21T04:16:38;-6.86;118.99
75296;DHT22;64623;44.738;37.804;2023-11-21T04:17:42;-6.91;118.99
75296;DHT22;64623;44.738;37.804;2023-11-21T04:18:44;-6.87;118.99
75296;DHT22;64623;44.738;37.804;2023-11-21T04:19:47;-6.86;118.99
75296;DHT22;64623;44.738;37.804;2023-11-21T04:20:50;-6.81;118.99
75296;DHT22;64623;44.738;37.804;2023-11-21T04:21:53;-6.82;118.99
75296;DHT22;64623;44.738;37.804;2023-11-21T04:22:56;-6.82;118.99
75296;DHT22;64623;44.738;37.804;2023-11-21T04:23:59;-6.88;118.99
75296;DHT22;64623;44.738;37.804;2023-11-21T04:25:02;-6.91;118.99
75296;DHT22;64623;44.738;37.804;2023-11-21T04:26:04;-6.90;118.99
75296;DHT22;64623;44.738;37.804;2023-11-21T04:27:07;-6.88;118.99
75296;DHT22;64623;44.738;37.804;2023-11-21T04:28:10;-6.88;118.99
75296;DHT22;64623;44.738;37.804;2023-11-21T04:29:13;-6.88;118.99
75296;DHT22;64623;44.738;37.804;2023-11-21T04:30:16;-6.90;118.99
75296;DHT22;64623;44.738;37.804;2023-11-21T04:31:19;-6.89;118.99
75296;DHT22;64623;44.738;37.804;2023-11-21T04:32:21;-6.90;118.99
75296;DHT22;64623;44.738;37.804;2023-11-21T04:33:24;-6.90;118.99
75296;DHT22;64623;44.738;37.804;2023-11-21T04:34:29;-6.90;118.99
75296;DHT22;64623;44.738;37.804;2023-11-21T04:35:34;-6.94;118.99
75296;DHT22;64623;44.738;37.804;2023-11-21T04:36:38;-6.95;118.99
75296;DHT22;64623;44.738;37.804;2023-11-21T04:37:40;-6.92;118.99
75296;DHT22;64623;44.738;37.804;2023-11-21T04:38:43;-6.90;118.99
75296;DHT22;64623;44.738;37.804;2023-11-21T04:39:46;-6.91;118.99
75296;DHT22;64623;44.738;37.804;2023-11-21T04:40:49;-6.88;118.99
75296;DHT22;64623;44.738;37.804;2023-11-21T04:41:52;-6.89;118.99
75296;DHT22;64623;44.738;37.804;2023-11-21T04:42:55;-6.86;118.99
75296;DHT22;64623;44.738;37.804;2023-11-21T04:43:59;-6.87;118.99
75296;DHT22;64623;44.738;37.804;2023-11-21T04:45:06;-6.83;118.99
75296;DHT22;64623;44.738;37.804;2023-11-21T04:46:13;-6.79;118.99
75296;DHT22;64623;44.738;37.804;2023-11-21T04:47:16;-6.80;118.99
75296;DHT22;64623;44.738;37.804;2023-11-21T04:48:21;-6.86;118.99
75296;DHT22;64623;44.738;37.804;2023-11-21T04:49:24;-6.87;118.99
75296;DHT22;64623;44.738;37.804;2023-11-21T04:50:27;-6.86;118.99
75296;DHT22;64623;44.738;37.804;2023-11-21T04:51:30;-6.83;118.99
75296;DHT22;64623;44.738;37.804;2023-11-21T04:52:34;-6.86;118.99
75296;DHT22;64623;44.738;37.804;2023-11-21T04:53:37;-6.86;118.99
75296;DHT22;64623;44.738;37.804;2023-11-21T04:54:40;-6.88;118.99
75296;DHT22;64623;44.738;37.804;2023-11-21T04:55:43;-6.88;118.99
75296;DHT22;64623;44.738;37.804;2023-11-21T04:56:46;-6.87;118.99
75296;DHT22;64623;44.738;37.804;2023-11-21T04:57:49;-6.86;118.99
75296;DHT22;64623;44.738;37.804;2023-11-21T04:58:52;-6.87;118.99
75296;DHT22;64623;44.738;37.804;2023-11-21T04:59:55;-6.90;118.99
75296;DHT22;64623;44.738;37.804;2023-11-21T05:00:58;-6.92;118.99
75296;DHT22;64623;44.738;37.804;2023-11-21T05:02:01;-6.90;118.99
75296;DHT22;64623;44.738;37.804;2023-11-21T05:03:04;-6.90;118.99
75296;DHT22;64623;44.738;37.804;2023-11-21T05:04:09;-6.88;118.99
75296;DHT22;64623;44.738;37.804;2023-11-21T05:05:12;-6.86;118.99
75296;DHT22;64623;44.738;37.804;2023-11-21T05:06:15;-6.88;118.99
75296;DHT22;64623;44.738;37.804;2023-11-21T05:07:18;-6.88;118.99
75296;DHT22;64623;44.738;37.804;2023-11-21T05:08:21;-6.88;118.99
75296;DHT22;64623;44.738;37.804;2023-11-21T05:09:25;-6.91;118.99
75296;DHT22;64623;44.738;37.804;2023-11-21T05:10:27;-6.91;118.99
75296;DHT22;64623;44.738;37.804;2023-11-21T05:11:31;-6.89;118.99
75296;DHT22;64623;44.738;37.804;2023-11-21T05:12:34;-6.95;118.99
75296;DHT22;64623;44.738;37.804;2023-11-21T05:13:40;-6.87;118.99
75296;DHT22;64623;44.738;37.804;2023-11-21T05:14:43;-6.83;118.99
75296;DHT22;64623;44.738;37.804;2023-11-21T05:15:46;-6.83;118.99
75296;DHT22;64623;44.738;37.804;2023-11-21T05:16:49;-6.82;118.99
75296;DHT22;64623;44.738;37.804;2023-11-21T05:17:53;-6.83;118.99
75296;DHT22;64623;44.738;37.804;2023-11-21T05:18:56;-6.82;118.99
75296;DHT22;64623;44.738;37.804;2023-11-21T05:20:04;-6.79;118.99
75296;DHT22;64623;44.738;37.804;2023-11-21T05:21:07;-6.75;118.99
75296;DHT22;64623;44.738;37.804;2023-11-21T05:22:10;-6.75;118.99
75296;DHT22;64623;44.738;37.804;2023-11-21T05:23:14;-6.79;118.99
75296;DHT22;64623;44.738;37.804;2023-11-21T05:24:17;-6.76;118.99
75296;DHT22;64623;44.738;37.804;2023-11-21T05:25:20;-6.77;118.99
75296;DHT22;64623;44.738;37.804;2023-11-21T05:26:22;-6.74;118.99
75296;DHT22;64623;44.738;37.804;2023-11-21T05:27:25;-6.76;118.99
75296;DHT22;64623;44.738;37.804;2023-11-21T05:28:28;-6.78;118.99
75296;DHT22;64623;44.738;37.804;2023-11-21T05:29:31;-6.77;118.99
75296;DHT22;64623;44.738;37.804;2023-11-21T05:30:33;-6.77;118.99
75296;DHT22;64623;44.738;37.804;2023-11-21T05:31:36;-6.77;118.99
75296;DHT22;64623;44.738;37.804;2023-11-21T05:32:41;-6.76;118.99
75296;DHT22;64623;44.738;37.804;2023-11-21T05:33:47;-6.75;118.99
75296;DHT22;64623;44.738;37.804;2023-11-21T05:34:50;-6.74;118.99
75296;DHT22;64623;44.738;37.804;2023-11-21T05:35:52;-6.75;118.99
75296;DHT22;64623;44.738;37.804;2023-11-21T05:36:55;-6.78;118.99
75296;DHT22;64623;44.738;37.804;2023-11-21T05:38:00;-6.80;118.99
75296;DHT22;64623;44.738;37.804;2023-11-21T05:39:03;-6.78;118.99
75296;DHT22;64623;44.738;37.804;2023-11-21T05:40:07;-6.80;118.99
75296;DHT22;64623;44.738;37.804;2023-11-21T05:41:11;-6.80;118.99
75296;DHT22;64623;44.738;37.804;2023-11-21T05:42:15;-6.80;118.99
75296;DHT22;64623;44.738;37.804;2023-11-21T05:43:19;-6.77;118.99
75296;DHT22;64623;44.738;37.804;2023-11-21T05:44:22;-6.74;118.99
75296;DHT22;64623;44.738;37.804;2023-11-21T05:45:26;-6.71;118.99
75296;DHT22;64623;44.738;37.804;2023-11-21T05:46:28;-6.68;118.99
75296;DHT22;64623;44.738;37.804;2023-11-21T05:47:31;-6.70;118.99
75296;DHT22;64623;44.738;37.804;2023-11-21T05:48:35;-6.68;118.99
75296;DHT22;64623;44.738;37.804;2023-11-21T05:49:39;-6.65;118.99
75296;DHT22;64623;44.738;37.804;2023-11-21T05:50:42;-6.65;118.99
75296;DHT22;64623;44.738;37.804;2023-11-21T05:51:45;-6.62;118.99
75296;DHT22;64623;44.738;37.804;2023-11-21T05:52:47;-6.64;118.99
75296;DHT22;64623;44.738;37.804;2023-11-21T05:53:50;-6.60;118.99
75296;DHT22;64623;44.738;37.804;2023-11-21T05:54:53;-6.60;118.99
75296;DHT22;64623;44.738;37.804;2023-11-21T05:55:57;-6.62;118.99
75296;DHT22;64623;44.738;37.804;2023-11-21T05:57:00;-6.62;118.99
75296;DHT22;64623;44.738;37.804;2023-11-21T05:58:03;-6.61;118.99
75296;DHT22;64623;44.738;37.804;2023-11-21T05:59:06;-6.67;118.99
75296;DHT22;64623;44.738;37.804;2023-11-21T06:00:11;-6.66;118.99
75296;DHT22;64623;44.738;37.804;2023-11-21T06:01:34;-6.66;118.99
75296;DHT22;64623;44.738;37.804;2023-11-21T06:02:41;-6.67;118.99
75296;DHT22;64623;44.738;37.804;2023-11-21T06:03:44;-6.66;118.99
75296;DHT22;64623;44.738;37.804;2023-11-21T06:04:48;-6.66;118.99
75296;DHT22;64623;44.738;37.804;2023-11-21T06:05:51;-6.62;118.99
75296;DHT22;64623;44.738;37.804;2023-11-21T06:06:54;-6.57;118.99
75296;DHT22;64623;44.738;37.804;2023-11-21T06:07:56;-6.56;118.99
75296;DHT22;64623;44.738;37.804;2023-11-21T06:09:03;-6.56;118.99
75296;DHT22;64623;44.738;37.804;2023-11-21T06:10:08;-6.55;118.99
75296;DHT22;64623;44.738;37.804;2023-11-21T06:11:12;-6.55;118.99
75296;DHT22;64623;44.738;37.804;2023-11-21T06:12:16;-6.57;118.99
75296;DHT22;64623;44.738;37.804;2023-11-21T06:13:19;-6.59;118.99
75296;DHT22;64623;44.738;37.804;2023-11-21T06:14:26;-6.56;118.99
75296;DHT22;64623;44.738;37.804;2023-11-21T06:15:30;-6.56;118.99
75296;DHT22;64623;44.738;37.804;2023-11-21T06:16:33;-6.59;118.99
75296;DHT22;64623;44.738;37.804;2023-11-21T06:17:36;-6.59;118.99
75296;DHT22;64623;44.738;37.804;2023-11-21T06:18:39;-6.59;118.99
75296;DHT22;64623;44.738;37.804;2023-11-21T06:19:42;-6.60;118.99
75296;DHT22;64623;44.738;37.804;2023-11-21T06:20:46;-6.59;118.99
75296;DHT22;64623;44.738;37.804;2023-11-21T06:21:49;-6.58;118.99
75296;DHT22;64623;44.738;37.804;2023-11-21T06:22:52;-6.60;118.99
75296;DHT22;64623;44.738;37.804;2023-11-21T06:23:56;-6.63;118.99
75296;DHT22;64623;44.738;37.804;2023-11-21T06:25:00;-6.60;118.99
75296;DHT22;64623;44.738;37.804;2023-11-21T06:26:04;-6.57;118.99
75296;DHT22;64623;44.738;37.804;2023-11-21T06:27:08;-6.57;118.99
75296;DHT22;64623;44.738;37.804;2023-11-21T06:28:11;-6.58;118.99
75296;DHT22;64623;44.738;37.804;2023-11-21T06:29:14;-6.59;118.99
75296;DHT22;64623;44.738;37.804;2023-11-21T06:30:17;-6.57;118.99
75296;DHT22;64623;44.738;37.804;2023-11-21T06:31:22;-6.55;118.99